sensor_id;sensor_type;location;lat;lon;timestamp;pressure;altitude;pressure_sealevel;temperature
72287;BMP180;60221;45.696;16.076;2022-11-30T00:01:15;100988.00;;;5.10
72287;BMP180;60221;45.696;16.076;2022-11-30T00:03:44;100999.00;;;5.10
72287;BMP180;60221;45.696;16.076;2022-11-30T00:06:13;100995.00;;;5.10
72287;BMP180;60221;45.696;16.076;2022-11-30T00:08:41;101002.00;;;5.10
72287;BMP180;60221;45.696;16.076;2022-11-30T00:11:14;100991.00;;;5.00
72287;BMP180;60221;45.696;16.076;2022-11-30T00:13:42;100999.00;;;5.00
72287;BMP180;60221;45.696;16.076;2022-11-30T00:16:09;100990.00;;;5.00
72287;BMP180;60221;45.696;16.076;2022-11-30T00:18:36;101001.00;;;5.00
72287;BMP180;60221;45.696;16.076;2022-11-30T00:21:04;100986.00;;;5.00
72287;BMP180;60221;45.696;16.076;2022-11-30T00:23:36;100985.00;;;5.00
72287;BMP180;60221;45.696;16.076;2022-11-30T00:26:06;100985.00;;;5.00
72287;BMP180;60221;45.696;16.076;2022-11-30T00:28:36;100988.00;;;5.10
72287;BMP180;60221;45.696;16.076;2022-11-30T00:31:05;100989.00;;;5.10
72287;BMP180;60221;45.696;16.076;2022-11-30T00:33:35;100999.00;;;5.10
72287;BMP180;60221;45.696;16.076;2022-11-30T00:36:05;100991.00;;;5.10
72287;BMP180;60221;45.696;16.076;2022-11-30T00:38:34;100991.00;;;5.10
72287;BMP180;60221;45.696;16.076;2022-11-30T00:41:01;100987.00;;;5.10
72287;BMP180;60221;45.696;16.076;2022-11-30T00:43:28;100989.00;;;5.10
72287;BMP180;60221;45.696;16.076;2022-11-30T00:45:56;100986.00;;;5.10
72287;BMP180;60221;45.696;16.076;2022-11-30T00:48:23;100987.00;;;5.10
72287;BMP180;60221;45.696;16.076;2022-11-30T00:50:50;100985.00;;;5.10
72287;BMP180;60221;45.696;16.076;2022-11-30T00:53:17;100985.00;;;5.10
72287;BMP180;60221;45.696;16.076;2022-11-30T00:55:44;100983.00;;;5.10
72287;BMP180;60221;45.696;16.076;2022-11-30T00:58:12;100986.00;;;5.00
72287;BMP180;60221;45.696;16.076;2022-11-30T01:00:40;100986.00;;;5.00
72287;BMP180;60221;45.696;16.076;2022-11-30T01:03:06;100993.00;;;5.00
72287;BMP180;60221;45.696;16.076;2022-11-30T01:05:33;100993.00;;;5.00
72287;BMP180;60221;45.696;16.076;2022-11-30T01:08:02;100991.00;;;5.00
72287;BMP180;60221;45.696;16.076;2022-11-30T01:10:30;100989.00;;;5.00
72287;BMP180;60221;45.696;16.076;2022-11-30T01:12:57;100989.00;;;5.10
72287;BMP180;60221;45.696;16.076;2022-11-30T01:15:23;100997.00;;;5.10
72287;BMP180;60221;45.696;16.076;2022-11-30T01:17:49;100993.00;;;5.00
72287;BMP180;60221;45.696;16.076;2022-11-30T01:20:15;100991.00;;;5.00
72287;BMP180;60221;45.696;16.076;2022-11-30T01:22:42;100992.00;;;5.00
72287;BMP180;60221;45.696;16.076;2022-11-30T01:25:08;100991.00;;;5.00
72287;BMP180;60221;45.696;16.076;2022-11-30T01:27:34;100989.00;;;5.00
72287;BMP180;60221;45.696;16.076;2022-11-30T01:30:01;100989.00;;;5.00
72287;BMP180;60221;45.696;16.076;2022-11-30T01:32:27;100990.00;;;5.00
72287;BMP180;60221;45.696;16.076;2022-11-30T01:34:53;100990.00;;;5.00
72287;BMP180;60221;45.696;16.076;2022-11-30T01:37:19;100990.00;;;5.00
72287;BMP180;60221;45.696;16.076;2022-11-30T01:39:45;100986.00;;;4.90
72287;BMP180;60221;45.696;16.076;2022-11-30T01:42:16;100994.00;;;4.90
72287;BMP180;60221;45.696;16.076;2022-11-30T01:44:55;100995.00;;;4.90
72287;BMP180;60221;45.696;16.076;2022-11-30T01:47:34;100991.00;;;4.90
72287;BMP180;60221;45.696;16.076;2022-11-30T01:50:13;100988.00;;;4.90
72287;BMP180;60221;45.696;16.076;2022-11-30T01:52:50;100986.00;;;4.90
72287;BMP180;60221;45.696;16.076;2022-11-30T01:55:36;100980.00;;;4.90
72287;BMP180;60221;45.696;16.076;2022-11-30T01:58:08;100990.00;;;4.90
72287;BMP180;60221;45.696;16.076;2022-11-30T02:00:38;100974.00;;;4.90
72287;BMP180;60221;45.696;16.076;2022-11-30T02:06:02;100969.00;;;4.80
72287;BMP180;60221;45.696;16.076;2022-11-30T02:08:29;100969.00;;;4.80
72287;BMP180;60221;45.696;16.076;2022-11-30T02:10:59;100968.00;;;4.80
72287;BMP180;60221;45.696;16.076;2022-11-30T02:16:56;100976.00;;;4.80
72287;BMP180;60221;45.696;16.076;2022-11-30T02:19:44;100962.00;;;4.80
72287;BMP180;60221;45.696;16.076;2022-11-30T02:25:42;100964.00;;;4.70
72287;BMP180;60221;45.696;16.076;2022-11-30T02:31:20;100949.00;;;4.70
72287;BMP180;60221;45.696;16.076;2022-11-30T02:33:50;100961.00;;;4.70
72287;BMP180;60221;45.696;16.076;2022-11-30T02:36:18;100964.00;;;4.70
72287;BMP180;60221;45.696;16.076;2022-11-30T02:38:46;100961.00;;;4.70
72287;BMP180;60221;45.696;16.076;2022-11-30T02:41:13;100964.00;;;4.70
72287;BMP180;60221;45.696;16.076;2022-11-30T02:43:39;100966.00;;;4.80
72287;BMP180;60221;45.696;16.076;2022-11-30T02:46:31;100968.00;;;4.80
72287;BMP180;60221;45.696;16.076;2022-11-30T02:51:53;100971.00;;;4.80
72287;BMP180;60221;45.696;16.076;2022-11-30T02:54:21;100974.00;;;4.80
72287;BMP180;60221;45.696;16.076;2022-11-30T02:56:48;100971.00;;;4.80
72287;BMP180;60221;45.696;16.076;2022-11-30T02:59:14;100972.00;;;4.80
72287;BMP180;60221;45.696;16.076;2022-11-30T03:01:40;100972.00;;;4.80
72287;BMP180;60221;45.696;16.076;2022-11-30T03:04:07;100975.00;;;4.80
72287;BMP180;60221;45.696;16.076;2022-11-30T03:06:33;100975.00;;;4.80
72287;BMP180;60221;45.696;16.076;2022-11-30T03:08:59;100969.00;;;4.80
72287;BMP180;60221;45.696;16.076;2022-11-30T03:11:25;100972.00;;;4.80
72287;BMP180;60221;45.696;16.076;2022-11-30T03:13:51;100971.00;;;4.80
72287;BMP180;60221;45.696;16.076;2022-11-30T03:16:17;100954.00;;;4.80
72287;BMP180;60221;45.696;16.076;2022-11-30T03:18:43;100958.00;;;4.80
72287;BMP180;60221;45.696;16.076;2022-11-30T03:21:11;100964.00;;;4.80
72287;BMP180;60221;45.696;16.076;2022-11-30T03:23:38;100963.00;;;4.90
72287;BMP180;60221;45.696;16.076;2022-11-30T03:26:06;100974.00;;;4.90
72287;BMP180;60221;45.696;16.076;2022-11-30T03:28:35;100970.00;;;4.90
72287;BMP180;60221;45.696;16.076;2022-11-30T03:31:02;100972.00;;;4.90
72287;BMP180;60221;45.696;16.076;2022-11-30T03:33:28;100985.00;;;5.00
72287;BMP180;60221;45.696;16.076;2022-11-30T03:35:59;100976.00;;;5.00
72287;BMP180;60221;45.696;16.076;2022-11-30T03:38:27;100974.00;;;4.90
72287;BMP180;60221;45.696;16.076;2022-11-30T03:41:09;100970.00;;;4.90
72287;BMP180;60221;45.696;16.076;2022-11-30T03:43:34;100970.00;;;4.90
72287;BMP180;60221;45.696;16.076;2022-11-30T03:46:01;100977.00;;;4.90
72287;BMP180;60221;45.696;16.076;2022-11-30T03:48:27;100967.00;;;4.90
72287;BMP180;60221;45.696;16.076;2022-11-30T03:50:53;100977.00;;;4.90
72287;BMP180;60221;45.696;16.076;2022-11-30T03:53:21;100974.00;;;4.90
72287;BMP180;60221;45.696;16.076;2022-11-30T03:55:51;100977.00;;;4.90
72287;BMP180;60221;45.696;16.076;2022-11-30T03:58:20;100972.00;;;4.80
72287;BMP180;60221;45.696;16.076;2022-11-30T04:00:47;100976.00;;;4.80
72287;BMP180;60221;45.696;16.076;2022-11-30T04:03:14;100976.00;;;4.80
72287;BMP180;60221;45.696;16.076;2022-11-30T04:05:42;100980.00;;;4.80
72287;BMP180;60221;45.696;16.076;2022-11-30T04:08:08;100968.00;;;4.80
72287;BMP180;60221;45.696;16.076;2022-11-30T04:10:34;100974.00;;;4.80
72287;BMP180;60221;45.696;16.076;2022-11-30T04:13:00;100982.00;;;4.80
72287;BMP180;60221;45.696;16.076;2022-11-30T04:15:26;100979.00;;;4.70
72287;BMP180;60221;45.696;16.076;2022-11-30T04:17:52;100971.00;;;4.70
72287;BMP180;60221;45.696;16.076;2022-11-30T04:20:18;100980.00;;;4.70
72287;BMP180;60221;45.696;16.076;2022-11-30T04:22:44;100982.00;;;4.70
72287;BMP180;60221;45.696;16.076;2022-11-30T04:25:10;100978.00;;;4.70
72287;BMP180;60221;45.696;16.076;2022-11-30T04:27:36;100972.00;;;4.70
72287;BMP180;60221;45.696;16.076;2022-11-30T04:30:03;100977.00;;;4.70
72287;BMP180;60221;45.696;16.076;2022-11-30T04:32:30;100969.00;;;4.70
72287;BMP180;60221;45.696;16.076;2022-11-30T04:34:56;100971.00;;;4.70
72287;BMP180;60221;45.696;16.076;2022-11-30T04:37:22;100976.00;;;4.70
72287;BMP180;60221;45.696;16.076;2022-11-30T04:39:48;100967.00;;;4.70
72287;BMP180;60221;45.696;16.076;2022-11-30T04:42:14;100967.00;;;4.60
72287;BMP180;60221;45.696;16.076;2022-11-30T04:44:40;100978.00;;;4.60
72287;BMP180;60221;45.696;16.076;2022-11-30T04:47:06;100971.00;;;4.60
72287;BMP180;60221;45.696;16.076;2022-11-30T04:49:32;100970.00;;;4.60
72287;BMP180;60221;45.696;16.076;2022-11-30T04:51:58;100971.00;;;4.60
72287;BMP180;60221;45.696;16.076;2022-11-30T04:54:24;100974.00;;;4.60
72287;BMP180;60221;45.696;16.076;2022-11-30T04:56:50;100974.00;;;4.60
72287;BMP180;60221;45.696;16.076;2022-11-30T04:59:16;100979.00;;;4.50
72287;BMP180;60221;45.696;16.076;2022-11-30T05:01:42;100976.00;;;4.50
72287;BMP180;60221;45.696;16.076;2022-11-30T05:04:09;100971.00;;;4.50
72287;BMP180;60221;45.696;16.076;2022-11-30T05:06:35;100975.00;;;4.50
72287;BMP180;60221;45.696;16.076;2022-11-30T05:09:01;100978.00;;;4.50
72287;BMP180;60221;45.696;16.076;2022-11-30T05:11:27;100974.00;;;4.50
72287;BMP180;60221;45.696;16.076;2022-11-30T05:13:53;100972.00;;;4.50
72287;BMP180;60221;45.696;16.076;2022-11-30T05:16:19;100969.00;;;4.50
72287;BMP180;60221;45.696;16.076;2022-11-30T05:18:45;100966.00;;;4.50
72287;BMP180;60221;45.696;16.076;2022-11-30T05:21:11;100970.00;;;4.50
72287;BMP180;60221;45.696;16.076;2022-11-30T05:23:37;100970.00;;;4.40
72287;BMP180;60221;45.696;16.076;2022-11-30T05:26:03;100976.00;;;4.40
72287;BMP180;60221;45.696;16.076;2022-11-30T05:28:29;100977.00;;;4.40
72287;BMP180;60221;45.696;16.076;2022-11-30T05:31:02;100980.00;;;4.40
72287;BMP180;60221;45.696;16.076;2022-11-30T05:33:29;100974.00;;;4.40
72287;BMP180;60221;45.696;16.076;2022-11-30T05:35:56;100984.00;;;4.40
72287;BMP180;60221;45.696;16.076;2022-11-30T05:38:22;100984.00;;;4.40
72287;BMP180;60221;45.696;16.076;2022-11-30T05:40:49;100981.00;;;4.40
72287;BMP180;60221;45.696;16.076;2022-11-30T05:43:15;100977.00;;;4.40
72287;BMP180;60221;45.696;16.076;2022-11-30T05:45:43;100981.00;;;4.40
72287;BMP180;60221;45.696;16.076;2022-11-30T05:48:09;100985.00;;;4.40
72287;BMP180;60221;45.696;16.076;2022-11-30T05:50:35;100983.00;;;4.40
72287;BMP180;60221;45.696;16.076;2022-11-30T05:53:01;100979.00;;;4.40
72287;BMP180;60221;45.696;16.076;2022-11-30T05:55:28;100980.00;;;4.40
72287;BMP180;60221;45.696;16.076;2022-11-30T05:57:55;100985.00;;;4.40
72287;BMP180;60221;45.696;16.076;2022-11-30T06:00:22;100987.00;;;4.40
72287;BMP180;60221;45.696;16.076;2022-11-30T06:02:56;100987.00;;;4.40
72287;BMP180;60221;45.696;16.076;2022-11-30T06:05:23;100974.00;;;4.40
72287;BMP180;60221;45.696;16.076;2022-11-30T06:07:50;100989.00;;;4.50
72287;BMP180;60221;45.696;16.076;2022-11-30T06:10:16;100985.00;;;4.40
72287;BMP180;60221;45.696;16.076;2022-11-30T06:12:43;100988.00;;;4.40
72287;BMP180;60221;45.696;16.076;2022-11-30T06:15:09;100978.00;;;4.40
72287;BMP180;60221;45.696;16.076;2022-11-30T06:17:36;100985.00;;;4.40
72287;BMP180;60221;45.696;16.076;2022-11-30T06:20:04;100990.00;;;4.40
72287;BMP180;60221;45.696;16.076;2022-11-30T06:22:32;100989.00;;;4.40
72287;BMP180;60221;45.696;16.076;2022-11-30T06:24:58;100985.00;;;4.40
72287;BMP180;60221;45.696;16.076;2022-11-30T06:27:29;100982.00;;;4.40
72287;BMP180;60221;45.696;16.076;2022-11-30T06:29:56;100980.00;;;4.40
72287;BMP180;60221;45.696;16.076;2022-11-30T06:32:22;100992.00;;;4.40
72287;BMP180;60221;45.696;16.076;2022-11-30T06:34:48;100996.00;;;4.40
72287;BMP180;60221;45.696;16.076;2022-11-30T06:37:14;100997.00;;;4.40
72287;BMP180;60221;45.696;16.076;2022-11-30T06:39:40;100995.00;;;4.40
72287;BMP180;60221;45.696;16.076;2022-11-30T06:42:06;100995.00;;;4.50
72287;BMP180;60221;45.696;16.076;2022-11-30T06:44:32;101003.00;;;4.50
72287;BMP180;60221;45.696;16.076;2022-11-30T06:46:58;101003.00;;;4.50
72287;BMP180;60221;45.696;16.076;2022-11-30T06:49:24;101007.00;;;4.60
72287;BMP180;60221;45.696;16.076;2022-11-30T06:51:50;101012.00;;;4.60
72287;BMP180;60221;45.696;16.076;2022-11-30T06:54:17;101010.00;;;4.60
72287;BMP180;60221;45.696;16.076;2022-11-30T06:56:43;101008.00;;;4.70
72287;BMP180;60221;45.696;16.076;2022-11-30T06:59:09;101014.00;;;4.70
72287;BMP180;60221;45.696;16.076;2022-11-30T07:01:35;101003.00;;;4.70
72287;BMP180;60221;45.696;16.076;2022-11-30T07:04:01;101018.00;;;4.70
72287;BMP180;60221;45.696;16.076;2022-11-30T07:06:27;101005.00;;;4.70
72287;BMP180;60221;45.696;16.076;2022-11-30T07:08:53;101011.00;;;4.80
72287;BMP180;60221;45.696;16.076;2022-11-30T07:11:19;101008.00;;;4.80
72287;BMP180;60221;45.696;16.076;2022-11-30T07:13:45;101008.00;;;4.80
72287;BMP180;60221;45.696;16.076;2022-11-30T07:16:11;101006.00;;;4.80
72287;BMP180;60221;45.696;16.076;2022-11-30T07:18:37;101009.00;;;4.80
72287;BMP180;60221;45.696;16.076;2022-11-30T07:21:06;101009.00;;;4.80
72287;BMP180;60221;45.696;16.076;2022-11-30T07:23:32;101016.00;;;4.80
72287;BMP180;60221;45.696;16.076;2022-11-30T07:26:17;101013.00;;;4.80
72287;BMP180;60221;45.696;16.076;2022-11-30T07:28:44;101012.00;;;4.70
72287;BMP180;60221;45.696;16.076;2022-11-30T07:31:12;101021.00;;;4.80
72287;BMP180;60221;45.696;16.076;2022-11-30T07:33:40;101013.00;;;4.80
72287;BMP180;60221;45.696;16.076;2022-11-30T07:36:07;101003.00;;;4.80
72287;BMP180;60221;45.696;16.076;2022-11-30T07:38:34;101006.00;;;4.80
72287;BMP180;60221;45.696;16.076;2022-11-30T07:41:00;101006.00;;;4.80
72287;BMP180;60221;45.696;16.076;2022-11-30T07:43:27;101008.00;;;4.90
72287;BMP180;60221;45.696;16.076;2022-11-30T07:45:54;101015.00;;;4.90
72287;BMP180;60221;45.696;16.076;2022-11-30T07:48:20;101014.00;;;4.90
72287;BMP180;60221;45.696;16.076;2022-11-30T07:50:47;101009.00;;;5.00
72287;BMP180;60221;45.696;16.076;2022-11-30T07:53:14;101004.00;;;5.00
72287;BMP180;60221;45.696;16.076;2022-11-30T07:55:41;101009.00;;;4.90
72287;BMP180;60221;45.696;16.076;2022-11-30T07:58:08;101007.00;;;4.90
72287;BMP180;60221;45.696;16.076;2022-11-30T08:00:37;100999.00;;;4.90
72287;BMP180;60221;45.696;16.076;2022-11-30T08:03:03;101008.00;;;4.90
72287;BMP180;60221;45.696;16.076;2022-11-30T08:05:30;101019.00;;;5.00
72287;BMP180;60221;45.696;16.076;2022-11-30T08:07:56;101002.00;;;5.00
72287;BMP180;60221;45.696;16.076;2022-11-30T08:10:23;101007.00;;;5.00
72287;BMP180;60221;45.696;16.076;2022-11-30T08:12:49;101008.00;;;5.00
72287;BMP180;60221;45.696;16.076;2022-11-30T08:15:15;101014.00;;;5.00
72287;BMP180;60221;45.696;16.076;2022-11-30T08:17:41;101008.00;;;5.00
72287;BMP180;60221;45.696;16.076;2022-11-30T08:20:09;101008.00;;;5.00
72287;BMP180;60221;45.696;16.076;2022-11-30T08:22:36;101014.00;;;5.00
72287;BMP180;60221;45.696;16.076;2022-11-30T08:25:03;101016.00;;;5.00
72287;BMP180;60221;45.696;16.076;2022-11-30T08:27:30;101022.00;;;5.00
72287;BMP180;60221;45.696;16.076;2022-11-30T08:29:56;101016.00;;;5.10
72287;BMP180;60221;45.696;16.076;2022-11-30T08:32:22;101021.00;;;5.10
72287;BMP180;60221;45.696;16.076;2022-11-30T08:34:48;101018.00;;;5.10
72287;BMP180;60221;45.696;16.076;2022-11-30T08:37:14;101015.00;;;5.10
72287;BMP180;60221;45.696;16.076;2022-11-30T08:39:40;101021.00;;;5.10
72287;BMP180;60221;45.696;16.076;2022-11-30T08:42:06;101021.00;;;5.10
72287;BMP180;60221;45.696;16.076;2022-11-30T08:44:32;101027.00;;;5.10
72287;BMP180;60221;45.696;16.076;2022-11-30T08:46:58;101022.00;;;5.20
72287;BMP180;60221;45.696;16.076;2022-11-30T08:49:24;101031.00;;;5.20
72287;BMP180;60221;45.696;16.076;2022-11-30T08:51:52;101025.00;;;5.20
72287;BMP180;60221;45.696;16.076;2022-11-30T08:54:20;101029.00;;;5.20
72287;BMP180;60221;45.696;16.076;2022-11-30T08:56:46;101027.00;;;5.20
72287;BMP180;60221;45.696;16.076;2022-11-30T08:59:12;101025.00;;;5.30
72287;BMP180;60221;45.696;16.076;2022-11-30T09:01:38;101031.00;;;5.30
72287;BMP180;60221;45.696;16.076;2022-11-30T09:04:06;101039.00;;;5.30
72287;BMP180;60221;45.696;16.076;2022-11-30T09:06:32;101033.00;;;5.30
72287;BMP180;60221;45.696;16.076;2022-11-30T09:08:58;101037.00;;;5.30
72287;BMP180;60221;45.696;16.076;2022-11-30T09:11:30;101025.00;;;5.30
72287;BMP180;60221;45.696;16.076;2022-11-30T09:14:00;101023.00;;;5.40
72287;BMP180;60221;45.696;16.076;2022-11-30T09:16:32;101019.00;;;5.40
72287;BMP180;60221;45.696;16.076;2022-11-30T09:18:58;101026.00;;;5.40
72287;BMP180;60221;45.696;16.076;2022-11-30T09:21:25;101026.00;;;5.40
72287;BMP180;60221;45.696;16.076;2022-11-30T09:23:51;101018.00;;;5.40
72287;BMP180;60221;45.696;16.076;2022-11-30T09:26:19;101030.00;;;5.40
72287;BMP180;60221;45.696;16.076;2022-11-30T09:28:48;101021.00;;;5.40
72287;BMP180;60221;45.696;16.076;2022-11-30T09:31:16;101016.00;;;5.40
72287;BMP180;60221;45.696;16.076;2022-11-30T09:33:44;101030.00;;;5.40
72287;BMP180;60221;45.696;16.076;2022-11-30T09:36:17;101021.00;;;5.40
72287;BMP180;60221;45.696;16.076;2022-11-30T09:38:45;101030.00;;;5.40
72287;BMP180;60221;45.696;16.076;2022-11-30T09:41:48;101023.00;;;5.40
72287;BMP180;60221;45.696;16.076;2022-11-30T09:50:17;101017.00;;;5.50
72287;BMP180;60221;45.696;16.076;2022-11-30T09:52:48;101009.00;;;5.50
72287;BMP180;60221;45.696;16.076;2022-11-30T09:55:38;101005.00;;;5.50
72287;BMP180;60221;45.696;16.076;2022-11-30T09:58:11;101010.00;;;5.50
72287;BMP180;60221;45.696;16.076;2022-11-30T10:00:38;101003.00;;;5.50
72287;BMP180;60221;45.696;16.076;2022-11-30T10:03:05;101001.00;;;5.50
72287;BMP180;60221;45.696;16.076;2022-11-30T10:05:46;100999.00;;;5.50
72287;BMP180;60221;45.696;16.076;2022-11-30T10:08:30;101000.00;;;5.60
72287;BMP180;60221;45.696;16.076;2022-11-30T10:14:20;100981.00;;;5.60
72287;BMP180;60221;45.696;16.076;2022-11-30T10:16:59;100984.00;;;5.60
72287;BMP180;60221;45.696;16.076;2022-11-30T10:22:50;100982.00;;;5.60
72287;BMP180;60221;45.696;16.076;2022-11-30T10:25:36;100984.00;;;5.60
72287;BMP180;60221;45.696;16.076;2022-11-30T10:28:21;100970.00;;;5.60
72287;BMP180;60221;45.696;16.076;2022-11-30T10:31:00;100986.00;;;5.70
72287;BMP180;60221;45.696;16.076;2022-11-30T10:33:31;100973.00;;;5.70
72287;BMP180;60221;45.696;16.076;2022-11-30T10:36:05;100974.00;;;5.70
72287;BMP180;60221;45.696;16.076;2022-11-30T10:38:43;100978.00;;;5.70
72287;BMP180;60221;45.696;16.076;2022-11-30T10:41:27;100980.00;;;5.70
72287;BMP180;60221;45.696;16.076;2022-11-30T10:44:04;100972.00;;;5.70
72287;BMP180;60221;45.696;16.076;2022-11-30T10:46:53;100968.00;;;5.80
72287;BMP180;60221;45.696;16.076;2022-11-30T10:49:36;100967.00;;;5.80
72287;BMP180;60221;45.696;16.076;2022-11-30T10:52:08;100963.00;;;5.80
72287;BMP180;60221;45.696;16.076;2022-11-30T10:54:37;100955.00;;;5.80
72287;BMP180;60221;45.696;16.076;2022-11-30T10:57:05;100957.00;;;5.90
72287;BMP180;60221;45.696;16.076;2022-11-30T11:02:39;100957.00;;;5.90
72287;BMP180;60221;45.696;16.076;2022-11-30T11:05:16;100947.00;;;5.90
72287;BMP180;60221;45.696;16.076;2022-11-30T11:08:16;100954.00;;;5.90
72287;BMP180;60221;45.696;16.076;2022-11-30T11:10:46;100959.00;;;5.90
72287;BMP180;60221;45.696;16.076;2022-11-30T11:16:10;100940.00;;;5.90
72287;BMP180;60221;45.696;16.076;2022-11-30T11:18:55;100948.00;;;5.90
72287;BMP180;60221;45.696;16.076;2022-11-30T11:21:23;100943.00;;;5.90
72287;BMP180;60221;45.696;16.076;2022-11-30T11:23:51;100948.00;;;5.90
72287;BMP180;60221;45.696;16.076;2022-11-30T11:26:25;100948.00;;;5.90
72287;BMP180;60221;45.696;16.076;2022-11-30T11:28:55;100942.00;;;5.90
72287;BMP180;60221;45.696;16.076;2022-11-30T11:31:45;100935.00;;;5.90
72287;BMP180;60221;45.696;16.076;2022-11-30T11:34:26;100932.00;;;5.80
72287;BMP180;60221;45.696;16.076;2022-11-30T11:37:19;100929.00;;;5.80
72287;BMP180;60221;45.696;16.076;2022-11-30T11:40:12;100936.00;;;5.80
72287;BMP180;60221;45.696;16.076;2022-11-30T11:42:41;100935.00;;;5.80
72287;BMP180;60221;45.696;16.076;2022-11-30T11:48:01;100937.00;;;5.70
72287;BMP180;60221;45.696;16.076;2022-11-30T11:50:35;100939.00;;;5.70
72287;BMP180;60221;45.696;16.076;2022-11-30T11:53:23;100942.00;;;5.70
72287;BMP180;60221;45.696;16.076;2022-11-30T11:56:15;100945.00;;;5.70
72287;BMP180;60221;45.696;16.076;2022-11-30T12:04:52;100932.00;;;5.70
72287;BMP180;60221;45.696;16.076;2022-11-30T12:07:43;100938.00;;;5.70
72287;BMP180;60221;45.696;16.076;2022-11-30T12:12:54;100933.00;;;5.70
72287;BMP180;60221;45.696;16.076;2022-11-30T12:15:36;100924.00;;;5.60
72287;BMP180;60221;45.696;16.076;2022-11-30T12:18:14;100926.00;;;5.70
72287;BMP180;60221;45.696;16.076;2022-11-30T12:20:57;100925.00;;;5.70
72287;BMP180;60221;45.696;16.076;2022-11-30T12:23:53;100918.00;;;5.70
72287;BMP180;60221;45.696;16.076;2022-11-30T12:26:41;100910.00;;;5.70
72287;BMP180;60221;45.696;16.076;2022-11-30T12:35:17;100923.00;;;5.70
72287;BMP180;60221;45.696;16.076;2022-11-30T12:37:57;100912.00;;;5.70
72287;BMP180;60221;45.696;16.076;2022-11-30T12:49:06;100917.00;;;5.80
72287;BMP180;60221;45.696;16.076;2022-11-30T12:51:34;100929.00;;;5.80
72287;BMP180;60221;45.696;16.076;2022-11-30T12:57:29;100918.00;;;5.70
72287;BMP180;60221;45.696;16.076;2022-11-30T13:00:07;100918.00;;;5.70
72287;BMP180;60221;45.696;16.076;2022-11-30T13:02:39;100920.00;;;5.70
72287;BMP180;60221;45.696;16.076;2022-11-30T13:05:25;100903.00;;;5.70
72287;BMP180;60221;45.696;16.076;2022-11-30T13:08:10;100898.00;;;5.70
72287;BMP180;60221;45.696;16.076;2022-11-30T13:10:45;100903.00;;;5.70
72287;BMP180;60221;45.696;16.076;2022-11-30T13:13:21;100904.00;;;5.70
72287;BMP180;60221;45.696;16.076;2022-11-30T13:15:44;100901.00;;;5.70
72287;BMP180;60221;45.696;16.076;2022-11-30T13:18:17;100897.00;;;5.70
72287;BMP180;60221;45.696;16.076;2022-11-30T13:21:01;100901.00;;;5.70
72287;BMP180;60221;45.696;16.076;2022-11-30T13:23:45;100909.00;;;5.70
72287;BMP180;60221;45.696;16.076;2022-11-30T13:26:42;100905.00;;;5.70
72287;BMP180;60221;45.696;16.076;2022-11-30T13:29:29;100905.00;;;5.70
72287;BMP180;60221;45.696;16.076;2022-11-30T13:32:14;100903.00;;;5.70
72287;BMP180;60221;45.696;16.076;2022-11-30T13:34:42;100916.00;;;5.70
72287;BMP180;60221;45.696;16.076;2022-11-30T13:37:11;100917.00;;;5.70
72287;BMP180;60221;45.696;16.076;2022-11-30T13:39:48;100912.00;;;5.70
72287;BMP180;60221;45.696;16.076;2022-11-30T13:42:37;100913.00;;;5.70
72287;BMP180;60221;45.696;16.076;2022-11-30T13:47:54;100915.00;;;5.70
72287;BMP180;60221;45.696;16.076;2022-11-30T13:50:26;100913.00;;;5.70
72287;BMP180;60221;45.696;16.076;2022-11-30T13:53:05;100913.00;;;5.70
72287;BMP180;60221;45.696;16.076;2022-11-30T13:58:13;100913.00;;;5.60
72287;BMP180;60221;45.696;16.076;2022-11-30T14:00:46;100910.00;;;5.60
72287;BMP180;60221;45.696;16.076;2022-11-30T14:03:23;100927.00;;;5.70
72287;BMP180;60221;45.696;16.076;2022-11-30T14:05:55;100917.00;;;5.60
72287;BMP180;60221;45.696;16.076;2022-11-30T14:08:40;100914.00;;;5.60
72287;BMP180;60221;45.696;16.076;2022-11-30T14:11:38;100914.00;;;5.60
72287;BMP180;60221;45.696;16.076;2022-11-30T14:17:26;100919.00;;;5.60
72287;BMP180;60221;45.696;16.076;2022-11-30T14:20:05;100907.00;;;5.60
72287;BMP180;60221;45.696;16.076;2022-11-30T14:22:28;100901.00;;;5.60
72287;BMP180;60221;45.696;16.076;2022-11-30T14:24:56;100907.00;;;5.60
72287;BMP180;60221;45.696;16.076;2022-11-30T14:27:24;100904.00;;;5.60
72287;BMP180;60221;45.696;16.076;2022-11-30T14:29:58;100914.00;;;5.60
72287;BMP180;60221;45.696;16.076;2022-11-30T14:32:41;100916.00;;;5.60
72287;BMP180;60221;45.696;16.076;2022-11-30T14:35:12;100910.00;;;5.60
72287;BMP180;60221;45.696;16.076;2022-11-30T14:37:50;100917.00;;;5.60
72287;BMP180;60221;45.696;16.076;2022-11-30T14:40:20;100902.00;;;5.50
72287;BMP180;60221;45.696;16.076;2022-11-30T14:42:50;100907.00;;;5.60
72287;BMP180;60221;45.696;16.076;2022-11-30T14:45:24;100901.00;;;5.50
72287;BMP180;60221;45.696;16.076;2022-11-30T14:48:05;100915.00;;;5.50
72287;BMP180;60221;45.696;16.076;2022-11-30T14:50:34;100909.00;;;5.50
72287;BMP180;60221;45.696;16.076;2022-11-30T14:56:15;100913.00;;;5.50
72287;BMP180;60221;45.696;16.076;2022-11-30T14:59:14;100915.00;;;5.50
72287;BMP180;60221;45.696;16.076;2022-11-30T15:01:58;100905.00;;;5.50
72287;BMP180;60221;45.696;16.076;2022-11-30T15:04:28;100900.00;;;5.50
72287;BMP180;60221;45.696;16.076;2022-11-30T15:06:55;100909.00;;;5.50
72287;BMP180;60221;45.696;16.076;2022-11-30T15:09:25;100909.00;;;5.50
72287;BMP180;60221;45.696;16.076;2022-11-30T15:11:55;100906.00;;;5.50
72287;BMP180;60221;45.696;16.076;2022-11-30T15:14:23;100902.00;;;5.60
72287;BMP180;60221;45.696;16.076;2022-11-30T15:16:52;100904.00;;;5.60
72287;BMP180;60221;45.696;16.076;2022-11-30T15:19:22;100902.00;;;5.60
72287;BMP180;60221;45.696;16.076;2022-11-30T15:21:54;100906.00;;;5.60
72287;BMP180;60221;45.696;16.076;2022-11-30T15:24:22;100902.00;;;5.60
72287;BMP180;60221;45.696;16.076;2022-11-30T15:27:07;100911.00;;;5.50
72287;BMP180;60221;45.696;16.076;2022-11-30T15:29:38;100914.00;;;5.50
72287;BMP180;60221;45.696;16.076;2022-11-30T15:32:16;100909.00;;;5.50